Hauptseite
METAR-TAF:

METAR-TAF

Flughäfen :

RAF Odiham

Odiham, England

Breite: 51-14N, Länge: 000-57W, Höhe: 123 m

Beobachtung

Neuester Wetterbericht von vor 56 Minuten, um 13:50 UTC
Wind 10 kt aus Nord/Nordwest
Temperatur 18°C
Luftfeuchtigkeit 42%
Luftdruck 1027 hPa
Sichtweite 10 km oder mehr

METAR: EGVO 111350Z AUTO 34010KT 9999 BKN050/// 18/05 Q1027

Zeit: 15:46 (14:46 UTC)

Prognose

Neuester Wetterbericht von vor 25 Stunden und 10 Minuten, um 13:36 UTC
Gültige Prognose vom 10 um 15 UTC bis 11 um 03 UTC
Wind 12 kt aus Nordwest
Sichtweite 10 km oder mehr
Leicht bewölkt in der Höhe von 4800 ft

TAF: EGVO 101336Z 1015/1103 31012KT 9999 FEW048

Wetterbeobachtungen und Prognosen von mehr als 4000 Flughäfen (METAR und TAF Bericht).

Die verfügbaren Stationen werden durch gelbe und rote Markierungen auf der Karte dargestellt.

Führen Sie die Maus auf sie, um den Namen der Station zu sehen.

Darauf klicken, um die Beobachtung von Wetterbeobachtungen und Prognosen zu sehen.

Um die Karte zu ändern : klicken Sie auf den grünen Tasten mit einem schwarzen Kreuz Zum Vergrößern, auf den grünen Button mit einem Gedankenstrich zu verkleinern, oder auf die grünen Pfeile für benachbarte Karten.


METAR-TAF: